createdAt,value
2023-04-23T08:01:10.240Z,500.00
2023-04-23T08:02:10.348Z,500.00
2023-04-23T08:03:10.398Z,500.00
2023-04-23T08:04:10.547Z,500.00
2023-04-23T08:05:10.531Z,500.00
2023-04-23T08:06:10.351Z,500.00
2023-04-23T08:07:10.458Z,400.00
2023-04-23T08:08:10.421Z,400.00
2023-04-23T08:09:10.460Z,400.00
2023-04-23T08:10:10.467Z,400.00
2023-04-23T08:11:10.501Z,400.00
2023-04-23T08:12:10.566Z,400.00
2023-04-23T08:13:10.524Z,400.00
2023-04-23T08:14:10.538Z,400.00
2023-04-23T08:15:10.533Z,400.00
2023-04-23T08:16:10.620Z,400.00
2023-04-23T08:17:10.819Z,400.00
2023-04-23T08:18:10.625Z,400.00
2023-04-23T08:19:10.645Z,400.00
2023-04-23T08:20:10.676Z,400.00
2023-04-23T08:21:10.732Z,400.00
2023-04-23T08:22:10.780Z,400.00
2023-04-23T08:23:10.773Z,400.00
2023-04-23T08:24:10.812Z,400.00
2023-04-23T08:25:10.865Z,400.00
2023-04-23T08:26:10.973Z,400.00
2023-04-23T08:27:10.962Z,400.00
2023-04-23T08:28:11.022Z,405.00
2023-04-23T08:29:11.694Z,448.00
2023-04-23T08:30:11.115Z,493.00
2023-04-23T08:31:22.672Z,501.00
2023-04-23T08:32:12.207Z,501.00
2023-04-23T08:33:11.190Z,487.00
2023-04-23T08:34:11.190Z,480.00
2023-04-23T08:35:11.129Z,467.00
2023-04-23T08:36:11.145Z,462.00
2023-04-23T08:37:19.679Z,500.00
2023-04-23T08:38:12.275Z,500.00
2023-04-23T08:39:11.126Z,491.00
2023-04-23T08:40:11.117Z,484.00
2023-04-23T08:41:11.145Z,475.00
2023-04-23T08:42:11.095Z,470.00
2023-04-23T08:43:11.092Z,499.00
2023-04-23T08:44:11.082Z,504.00
2023-04-23T08:45:11.103Z,502.00
2023-04-23T08:46:11.124Z,502.00
2023-04-23T08:47:11.162Z,502.00
2023-04-23T08:48:11.268Z,499.00
2023-04-23T08:49:11.455Z,505.00
2023-04-23T08:50:11.302Z,502.00
2023-04-23T08:51:11.355Z,503.00
2023-04-23T08:52:11.406Z,502.00
2023-04-23T08:53:11.523Z,502.00
2023-04-23T08:54:11.573Z,500.00
2023-04-23T08:55:11.598Z,506.00
2023-04-23T08:56:11.657Z,504.00
2023-04-23T08:57:11.703Z,504.00
2023-04-23T08:58:11.861Z,500.00
2023-04-23T08:59:11.783Z,507.00
2023-04-23T09:00:11.894Z,503.00
2023-04-23T09:01:11.959Z,504.00
2023-04-23T09:02:12.003Z,503.00
2023-04-23T09:03:12.144Z,506.00
2023-04-23T09:04:12.062Z,510.00
2023-04-23T09:05:12.141Z,504.00
2023-04-23T09:06:12.180Z,505.00
2023-04-23T09:07:12.240Z,503.00
2023-04-23T09:08:12.303Z,506.00
2023-04-23T09:09:12.345Z,501.00
2023-04-23T09:10:12.396Z,504.00
2023-04-23T09:11:12.451Z,506.00
2023-04-23T09:12:12.492Z,503.00
2023-04-23T09:13:12.598Z,501.00
2023-04-23T09:14:12.615Z,500.00
2023-04-23T09:15:12.679Z,500.00
2023-04-23T09:16:12.708Z,503.00
2023-04-23T09:17:12.731Z,508.00
2023-04-23T09:18:12.796Z,505.00
2023-04-23T09:19:12.863Z,506.00
2023-04-23T09:20:12.893Z,511.00
2023-04-23T09:21:13.002Z,501.00
2023-04-23T09:22:13.004Z,502.00
2023-04-23T09:23:13.038Z,506.00
2023-04-23T09:24:13.118Z,502.00
2023-04-23T09:25:13.147Z,504.00
2023-04-23T09:26:13.192Z,506.00
2023-04-23T09:27:13.271Z,507.00
2023-04-23T09:28:13.313Z,504.00
2023-04-23T09:29:13.325Z,502.00
2023-04-23T09:30:13.372Z,507.00
2023-04-23T09:31:13.453Z,505.00
2023-04-23T09:32:13.555Z,504.00
2023-04-23T09:33:13.576Z,503.00
2023-04-23T09:34:13.559Z,504.00
2023-04-23T09:35:13.622Z,503.00
2023-04-23T09:36:13.686Z,508.00
2023-04-23T09:37:13.763Z,502.00
2023-04-23T09:38:13.804Z,502.00
2023-04-23T09:39:13.827Z,503.00
2023-04-23T09:40:13.851Z,510.00
2023-04-23T09:41:13.960Z,502.00
2023-04-23T09:42:13.976Z,502.00
2023-04-23T09:43:14.023Z,508.00
2023-04-23T09:44:14.062Z,502.00
2023-04-23T09:45:14.137Z,505.00
2023-04-23T09:46:14.186Z,503.00
2023-04-23T09:47:14.163Z,504.00
2023-04-23T09:48:14.224Z,504.00
2023-04-23T09:49:14.263Z,507.00
2023-04-23T09:50:14.329Z,508.00
2023-04-23T09:51:14.367Z,502.00
2023-04-23T09:52:14.421Z,507.00
2023-04-23T09:53:14.486Z,505.00
2023-04-23T09:54:14.494Z,503.00
2023-04-23T09:55:14.585Z,501.00
2023-04-23T09:56:14.605Z,501.00
2023-04-23T09:57:14.656Z,508.00
2023-04-23T09:58:14.701Z,504.00
2023-04-23T09:59:14.733Z,504.00
2023-04-23T10:00:15.358Z,500.00
2023-04-23T10:01:14.976Z,506.00
2023-04-23T10:02:14.981Z,502.00
2023-04-23T10:03:15.130Z,506.00
2023-04-23T10:04:15.130Z,508.00
2023-04-23T10:06:25.908Z,506.00
2023-04-23T10:07:20.277Z,507.00
2023-04-23T10:08:15.216Z,507.00
2023-04-23T10:09:15.211Z,509.00
2023-04-23T10:10:15.250Z,511.00
2023-04-23T10:11:21.014Z,509.00
2023-04-23T10:13:15.270Z,506.00
2023-04-23T10:14:15.296Z,507.00
2023-04-23T10:15:15.258Z,509.00
2023-04-23T10:16:22.360Z,508.00
2023-04-23T10:17:16.258Z,506.00
2023-04-23T10:18:15.269Z,506.00
2023-04-23T10:19:15.234Z,508.00
2023-04-23T10:20:15.243Z,511.00
2023-04-23T10:21:15.275Z,506.00
2023-04-23T10:22:19.069Z,506.00
2023-04-23T10:23:15.242Z,506.00
2023-04-23T10:24:15.231Z,506.00
2023-04-23T10:25:15.219Z,508.00
2023-04-23T10:26:15.177Z,507.00
2023-04-23T10:27:28.557Z,502.00
2023-04-23T10:28:16.182Z,506.00
2023-04-23T10:29:15.229Z,506.00
2023-04-23T10:30:15.194Z,506.00
2023-04-23T10:31:15.245Z,503.00
2023-04-23T10:32:15.162Z,507.00
2023-04-23T10:33:26.496Z,503.00
2023-04-23T10:34:16.173Z,504.00
2023-04-23T10:35:15.134Z,504.00
2023-04-23T10:36:15.172Z,504.00
2023-04-23T10:37:15.127Z,499.00
2023-04-23T10:38:15.111Z,506.00
2023-04-23T10:39:20.841Z,508.00
2023-04-23T10:40:16.077Z,508.00
2023-04-23T10:41:15.111Z,508.00
2023-04-23T10:42:15.073Z,504.00
2023-04-23T10:43:15.078Z,511.00
2023-04-23T10:44:16.107Z,506.00
2023-04-23T10:45:23.429Z,504.00
2023-04-23T10:46:16.105Z,505.00
2023-04-23T10:47:15.064Z,505.00
2023-04-23T10:48:15.062Z,505.00
2023-04-23T10:49:15.086Z,502.00
2023-04-23T10:50:15.029Z,502.00
2023-04-23T10:52:02.664Z,508.00
2023-04-23T10:52:19.581Z,508.00
2023-04-23T10:53:16.035Z,509.00
2023-04-23T10:54:15.005Z,510.00
2023-04-23T10:55:14.972Z,511.00
2023-04-23T10:56:14.998Z,507.00
2023-04-23T10:57:14.983Z,504.00
2023-04-23T10:58:17.651Z,508.00
2023-04-23T10:59:15.045Z,508.00
2023-04-23T11:00:15.123Z,509.00
2023-04-23T11:01:15.113Z,505.00
2023-04-23T11:02:18.544Z,499.00
2023-04-23T11:03:15.241Z,508.00
2023-04-23T11:04:15.292Z,509.00
2023-04-23T11:05:15.110Z,508.00
2023-04-23T11:06:15.187Z,504.00
2023-04-23T11:07:15.223Z,508.00
2023-04-23T11:08:19.880Z,500.00
2023-04-23T11:09:15.221Z,501.00
2023-04-23T11:10:15.316Z,501.00
2023-04-23T11:11:15.214Z,502.00
2023-04-23T11:12:15.230Z,504.00
2023-04-23T11:13:15.231Z,504.00
2023-04-23T11:14:15.234Z,502.00
2023-04-23T11:15:15.209Z,505.00
2023-04-23T11:16:15.298Z,502.00
2023-04-23T11:17:15.194Z,501.00
2023-04-23T11:18:15.163Z,503.00
2023-04-23T11:19:15.186Z,502.00
2023-04-23T11:20:15.251Z,501.00
2023-04-23T11:21:15.177Z,504.00
2023-04-23T11:22:15.137Z,507.00
2023-04-23T11:23:15.197Z,503.00
2023-04-23T11:24:15.225Z,511.00
2023-04-23T11:25:15.246Z,501.00
2023-04-23T11:26:15.268Z,501.00
2023-04-23T11:27:15.296Z,503.00
2023-04-23T11:28:15.324Z,504.00
2023-04-23T11:29:15.367Z,507.00
2023-04-23T11:30:15.369Z,507.00
2023-04-23T11:31:15.402Z,509.00
2023-04-23T11:32:15.472Z,503.00
2023-04-23T11:33:15.490Z,509.00
2023-04-23T11:34:15.463Z,508.00
2023-04-23T11:35:15.535Z,505.00
2023-04-23T11:36:15.523Z,509.00
2023-04-23T11:37:15.601Z,508.00
2023-04-23T11:38:15.608Z,511.00
2023-04-23T11:39:15.616Z,505.00
2023-04-23T11:40:15.626Z,510.00
2023-04-23T11:41:15.748Z,507.00
2023-04-23T11:42:15.715Z,504.00
2023-04-23T11:43:15.690Z,508.00
2023-04-23T11:44:15.695Z,507.00
2023-04-23T11:45:15.721Z,507.00
2023-04-23T11:46:15.772Z,510.00
2023-04-23T11:47:15.775Z,503.00
2023-04-23T11:48:15.812Z,506.00
2023-04-23T11:49:15.802Z,505.00
2023-04-23T11:50:15.855Z,507.00
2023-04-23T11:51:15.887Z,508.00
2023-04-23T11:52:15.854Z,509.00
2023-04-23T11:53:15.873Z,504.00
2023-04-23T11:54:15.918Z,506.00
2023-04-23T11:55:15.960Z,505.00
2023-04-23T11:56:15.975Z,507.00
2023-04-23T11:57:15.984Z,504.00
2023-04-23T11:58:16.033Z,505.00
2023-04-23T11:59:16.050Z,504.00
2023-04-23T12:00:16.076Z,502.00
2023-04-23T12:01:16.093Z,504.00
2023-04-23T12:02:16.170Z,506.00
2023-04-23T12:03:16.261Z,505.00
2023-04-23T12:04:16.391Z,506.00
2023-04-23T12:05:16.197Z,509.00
2023-04-23T12:06:16.232Z,505.00
2023-04-23T12:07:26.279Z,507.00
2023-04-23T12:08:17.247Z,507.00
2023-04-23T12:09:16.233Z,505.00
2023-04-23T12:10:16.627Z,500.00
2023-04-23T12:11:16.236Z,502.00
2023-04-23T12:12:16.226Z,505.00
2023-04-23T12:13:16.184Z,504.00
2023-04-23T12:14:16.202Z,510.00
2023-04-23T12:15:16.170Z,504.00
2023-04-23T12:16:16.183Z,501.00
2023-04-23T12:17:16.182Z,508.00
2023-04-23T12:18:16.162Z,508.00
2023-04-23T12:19:16.144Z,506.00
2023-04-23T12:20:16.119Z,506.00
2023-04-23T12:21:16.251Z,503.00
2023-04-23T12:22:16.137Z,508.00
2023-04-23T12:23:16.132Z,505.00
2023-04-23T12:24:16.098Z,507.00
2023-04-23T12:25:16.189Z,501.00
2023-04-23T12:26:16.132Z,505.00
2023-04-23T12:27:16.182Z,506.00
2023-04-23T12:28:16.146Z,507.00
2023-04-23T12:29:16.138Z,500.00
2023-04-23T12:30:16.172Z,505.00
2023-04-23T12:31:16.206Z,507.00
2023-04-23T12:32:16.247Z,509.00
2023-04-23T12:33:16.204Z,508.00
2023-04-23T12:34:16.255Z,507.00
2023-04-23T12:35:16.288Z,502.00
2023-04-23T12:36:16.271Z,505.00
2023-04-23T12:37:16.298Z,504.00
2023-04-23T12:38:16.331Z,505.00
2023-04-23T12:39:16.337Z,503.00
2023-04-23T12:40:16.349Z,503.00
2023-04-23T12:41:16.507Z,506.00
2023-04-23T12:42:16.412Z,508.00
2023-04-23T12:43:16.396Z,505.00
2023-04-23T12:44:16.445Z,509.00
2023-04-23T12:45:16.445Z,510.00
2023-04-23T12:46:16.487Z,508.00
2023-04-23T12:47:16.516Z,501.00
2023-04-23T12:48:16.560Z,505.00
2023-04-23T12:49:16.565Z,505.00
2023-04-23T12:50:16.577Z,507.00
2023-04-23T12:51:16.589Z,509.00
2023-04-23T12:52:16.649Z,506.00
2023-04-23T12:53:16.640Z,507.00
2023-04-23T12:54:16.647Z,506.00
2023-04-23T12:55:16.665Z,507.00
2023-04-23T12:56:16.709Z,508.00
2023-04-23T12:57:17.394Z,505.00
2023-04-23T12:58:16.741Z,509.00
2023-04-23T12:59:16.735Z,506.00
2023-04-23T13:00:16.785Z,504.00
